PILOTS ONLINE: 611    ATC ONLINE: 111

KRND - Randolph Air Force Base

Location

City Universal City
Country  United States
Latitude 29° 31' 46" N
Longitude 98° 16' 44" W
Elevation 761 ft
Type Large Airport

Runways

14L/32R 8351 ft / 200 ft
14R/32L 8353 ft / 200 ft

Weather

METAR
2014/07/31 18:58
KRND 311858Z AUTO VRB04KT 10SM FEW043 SCT160 BKN180 BKN210 34/22 A2998 RMK AO2 SLP143 T03350215 $
TAF
2014/07/31 19:18
TAF KRND 3119/0123 31009KT 9999 SCT023 BKN170 QNH2993INS 
      TEMPO 3122/0101 35015G25KT 4800 -TSRA BKN030CB OVC065 
      BECMG 0101/0102 06009KT 9000 -SHRA SCT020 BKN050 QNH2988INS 
      BECMG 0105/0106 06006KT 9999 NSW BKN040 QNH3000INS 
      BECMG 0111/0112 VRB06KT 6000 BR BKN020 QNH3002INS 
      BECMG 0114/0115 05019KT 9999 NSW SCT025 BKN100 QNH2998INS TX35/3120Z TN25/0111Z 
      AMD 311906 LAST NO 
      AMDS AFT 3123 NEXT 0109

Outbound flights

Inbound flights